Time;durP1;ratioP1;P1;durP2;ratioP2;P2;SDS_P1;SDS_P2;PMS_P1;PMS_P2;Temp;Humidity;BMP_temperature;BMP_pressure;BME280_temperature;BME280_humidity;BME280_pressure;Samples;Min_cycle;Max_cycle;Signal;HPM_P1;HPM_P2
2023/07/08 00:02:12;;;;;;;3.53;2.40;;;;;;;19.79;56.34;101563.50;5033580;28;20057;-81
2023/07/08 00:04:39;;;;;;;2.25;1.98;;;;;;;19.74;55.52;101551.41;5032243;28;20030;-82
2023/07/08 00:07:05;;;;;;;2.33;2.13;;;;;;;19.72;58.43;101547.13;5034097;28;20025;-81
2023/07/08 00:09:31;;;;;;;2.03;1.83;;;;;;;19.69;56.58;101553.38;5034109;28;20113;-81
2023/07/08 00:11:59;;;;;;;1.80;1.70;;;;;;;19.63;55.96;101540.47;5033359;28;20108;-81
2023/07/08 00:14:25;;;;;;;1.88;1.77;;;;;;;19.64;55.96;101549.22;5033547;28;20053;-82
2023/07/08 00:16:51;;;;;;;1.97;1.67;;;;;;;19.59;55.88;101544.16;5033231;28;20041;-81
2023/07/08 00:19:19;;;;;;;3.05;1.88;;;;;;;19.54;58.21;101546.09;5033854;28;20026;-81
2023/07/08 00:21:45;;;;;;;5.03;3.08;;;;;;;19.45;58.41;101539.47;5033691;28;20021;-81
2023/07/08 00:24:11;;;;;;;2.40;2.20;;;;;;;19.42;57.61;101534.34;5032988;28;20029;-81
2023/07/08 00:26:37;;;;;;;3.15;2.38;;;;;;;19.37;58.12;101541.53;5033907;28;20074;-81
2023/07/08 00:29:02;;;;;;;2.80;2.20;;;;;;;19.33;59.41;101539.97;5033322;28;20037;-81
2023/07/08 00:31:27;;;;;;;2.40;2.20;;;;;;;19.27;57.65;101539.31;5032249;28;20025;-81
2023/07/08 00:33:55;;;;;;;2.10;1.90;;;;;;;19.28;59.32;101538.38;5033503;28;20038;-81
2023/07/08 00:36:23;;;;;;;2.28;2.08;;;;;;;19.26;57.15;101534.94;5033401;28;20025;-81
2023/07/08 00:38:50;;;;;;;1.85;1.75;;;;;;;19.26;57.26;101537.59;5032358;28;20024;-81
2023/07/08 00:41:32;;;;;;;3.55;2.50;;;;;;;19.20;57.78;101529.97;5033000;28;20125;-81
2023/07/08 00:43:59;;;;;;;2.33;2.00;;;;;;;19.16;57.75;101536.25;5033231;28;20080;-82
2023/07/08 00:46:27;;;;;;;2.42;2.20;;;;;;;19.15;57.83;101531.91;5032538;28;20250;-81
2023/07/08 00:48:59;;;;;;;5.25;3.30;;;;;;;19.01;61.09;101527.19;5033195;28;20121;-81
2023/07/08 00:51:25;;;;;;;4.43;3.20;;;;;;;18.96;60.72;101523.91;5032846;28;20776;-81
2023/07/08 00:53:50;;;;;;;6.40;3.07;;;;;;;18.91;61.28;101526.69;5032798;28;20024;-81
2023/07/08 00:56:21;;;;;;;6.53;3.30;;;;;;;18.85;61.46;101524.28;5032837;28;20144;-81
2023/07/08 00:59:02;;;;;;;6.43;3.67;;;;;;;18.75;61.78;101517.69;5020825;28;20112;-81
2023/07/08 01:01:29;;;;;;;5.72;3.15;;;;;;;18.73;60.90;101519.50;5012616;28;20033;-81
2023/07/08 01:04:02;;;;;;;5.15;3.30;;;;;;;18.70;62.44;101522.25;5013438;28;20025;-81
2023/07/08 01:06:34;;;;;;;5.18;3.40;;;;;;;18.58;62.88;101520.97;5011637;28;20034;-81
2023/07/08 01:09:05;;;;;;;6.60;3.60;;;;;;;18.56;63.06;101525.41;5012948;28;20501;-81
2023/07/08 01:11:32;;;;;;;8.35;3.90;;;;;;;18.48;63.33;101516.06;5012927;28;20018;-82
2023/07/08 01:13:59;;;;;;;9.07;4.00;;;;;;;18.45;63.08;101520.59;5012553;28;20069;-81
2023/07/08 01:16:25;;;;;;;7.82;3.90;;;;;;;18.39;63.26;101516.41;5012742;28;20571;-81
2023/07/08 01:18:53;;;;;;;5.97;3.90;;;;;;;18.36;62.92;101503.38;5013162;28;20022;-82
2023/07/08 01:21:30;;;;;;;10.00;4.50;;;;;;;18.32;63.77;101528.94;5012347;28;20030;-81
2023/07/08 01:23:55;;;;;;;;;;;;;;;18.32;63.92;101526.28;5022258;28;20034;-81
2023/07/08 01:26:25;;;;;;;5.00;3.70;;;;;;;18.31;63.80;101524.56;5031332;28;19921;-82
2023/07/08 01:28:52;;;;;;;6.97;4.13;;;;;;;18.25;63.39;101524.78;5032618;28;20021;-81
2023/07/08 01:31:18;;;;;;;8.43;4.00;;;;;;;18.20;64.25;101521.50;5032283;28;20017;-80
2023/07/08 01:33:43;;;;;;;8.38;4.30;;;;;;;18.18;64.32;101518.06;5032837;28;20036;-81
2023/07/08 01:36:11;;;;;;;7.43;4.00;;;;;;;18.17;64.18;101513.72;5031578;28;20029;-81
2023/07/08 01:38:38;;;;;;;6.18;3.60;;;;;;;18.15;64.19;101512.91;5032745;28;20071;-81
2023/07/08 01:41:03;;;;;;;;;;;;;;;18.13;64.35;101515.59;5033139;28;20374;-81
2023/07/08 01:43:28;;;;;;;5.70;3.70;;;;;;;18.14;64.63;101506.81;5032157;28;20027;-81
2023/07/08 01:45:54;;;;;;;5.63;3.90;;;;;;;18.13;64.22;101506.84;5032586;28;20025;-81
2023/07/08 01:48:22;;;;;;;6.20;3.60;;;;;;;18.12;64.25;101515.66;5031658;28;20083;-81
2023/07/08 01:50:50;;;;;;;5.53;3.38;;;;;;;18.11;64.31;101511.31;5021403;28;20057;-81
2023/07/08 01:53:22;;;;;;;5.05;3.30;;;;;;;18.09;64.54;101521.03;5012264;28;20033;-81
2023/07/08 01:55:47;;;;;;;5.78;3.63;;;;;;;18.08;64.68;101514.06;5012009;28;20049;-82
2023/07/08 01:58:13;;;;;;;6.00;3.70;;;;;;;18.03;64.80;101499.31;5012668;28;20029;-81
2023/07/08 02:00:38;;;;;;;8.87;4.03;;;;;;;18.02;64.79;101499.38;5012509;28;20014;-81
2023/07/08 02:03:03;;;;;;;7.13;3.90;;;;;;;18.01;64.39;101493.25;5012415;28;20060;-81
2023/07/08 02:05:29;;;;;;;7.43;3.70;;;;;;;17.99;65.24;101488.97;5031702;28;20033;-81
2023/07/08 02:07:56;;;;;;;5.20;3.13;;;;;;;17.98;64.49;101485.50;5032464;28;20057;-82
2023/07/08 02:10:21;;;;;;;6.43;3.15;;;;;;;17.97;64.93;101486.41;5031253;28;20017;-81
2023/07/08 02:12:46;;;;;;;5.30;3.30;;;;;;;17.96;64.85;101484.66;5032436;28;20112;-82
2023/07/08 02:15:14;;;;;;;4.27;2.97;;;;;;;17.94;64.93;101488.25;5032177;28;20164;-81
2023/07/08 02:17:40;;;;;;;4.65;2.90;;;;;;;17.94;64.48;101490.88;5027903;28;20029;-82
2023/07/08 02:20:05;;;;;;;5.27;2.90;;;;;;;17.88;65.44;101470.97;5012382;28;20398;-81
2023/07/08 02:22:31;;;;;;;4.13;2.95;;;;;;;17.87;64.18;101475.34;5012558;28;20033;-82
2023/07/08 02:24:56;;;;;;;3.77;3.03;;;;;;;17.86;64.89;101471.00;5011933;28;20034;-81
2023/07/08 02:27:22;;;;;;;3.17;2.70;;;;;;;17.88;64.47;101468.34;5013389;28;20064;-82
2023/07/08 02:29:50;;;;;;;5.33;3.33;;;;;;;17.84;65.58;101467.59;5016184;28;20030;-82
2023/07/08 02:32:15;;;;;;;5.65;3.22;;;;;;;17.82;64.90;101458.03;5014973;28;20072;-82
2023/07/08 02:34:41;;;;;;;4.80;2.70;;;;;;;17.82;64.59;101455.41;5016116;28;20054;-82
2023/07/08 02:37:07;;;;;;;4.03;2.70;;;;;;;17.86;63.87;101457.03;5015881;28;20048;-82
2023/07/08 02:39:32;;;;;;;2.93;2.47;;;;;;;17.81;64.70;101454.56;5015143;28;20025;-82
2023/07/08 02:41:57;;;;;;;6.53;3.73;;;;;;;17.75;66.18;101454.78;5016060;28;20540;-82
2023/07/08 02:44:23;;;;;;;6.00;3.47;;;;;;;17.78;64.84;101453.81;5015307;28;20061;-82
2023/07/08 02:46:49;;;;;;;3.45;2.75;;;;;;;17.73;64.67;101449.59;5014808;28;20022;-81
2023/07/08 02:49:14;;;;;;;5.53;3.80;;;;;;;17.71;66.08;101451.41;5015237;28;20112;-81
2023/07/08 02:51:39;;;;;;;4.87;3.30;;;;;;;17.67;66.37;101455.06;5015039;28;20049;-81
2023/07/08 02:54:05;;;;;;;6.97;3.77;;;;;;;17.62;66.89;101464.84;5015206;28;20038;-81
2023/07/08 02:56:30;;;;;;;7.23;3.97;;;;;;;17.59;67.09;101462.34;5022350;28;20567;-82
2023/07/08 02:58:55;;;;;;;6.80;3.90;;;;;;;17.55;66.55;101466.00;5033395;28;20038;-81
2023/07/08 03:01:21;;;;;;;7.07;3.80;;;;;;;17.52;66.98;101472.19;5034864;28;20025;-81
2023/07/08 03:03:50;;;;;;;6.73;4.00;;;;;;;17.45;67.26;101471.53;5035308;28;20025;-81
2023/07/08 03:06:15;;;;;;;6.63;4.03;;;;;;;17.49;67.22;101472.31;5033774;28;20054;-81
2023/07/08 03:08:41;;;;;;;4.83;3.30;;;;;;;17.51;66.03;101470.47;5035364;28;20107;-82
2023/07/08 03:11:12;;;;;;;6.57;3.60;;;;;;;17.49;66.31;101481.94;5035083;28;20025;-82
2023/07/08 03:13:38;;;;;;;5.78;3.40;;;;;;;17.49;67.20;101481.94;5033542;28;20021;-81
2023/07/08 03:16:12;;;;;;;5.40;3.10;;;;;;;17.45;67.53;101479.41;5034570;28;20037;-81
2023/07/08 03:18:45;;;;;;;5.38;3.50;;;;;;;17.39;67.64;101468.28;5033824;28;20031;-81
2023/07/08 03:21:12;;;;;;;6.63;3.58;;;;;;;17.39;67.83;101474.38;5034321;28;20478;-81
2023/07/08 03:23:38;;;;;;;5.70;3.80;;;;;;;17.32;67.77;101470.25;5034918;28;20021;-81
2023/07/08 03:26:04;;;;;;;5.07;3.40;;;;;;;17.27;68.21;101462.56;5035670;28;20116;-82
2023/07/08 03:28:29;;;;;;;5.00;3.37;;;;;;;17.28;67.99;101476.50;5034064;28;20355;-82
2023/07/08 03:30:54;;;;;;;5.90;3.87;;;;;;;17.24;68.97;101473.13;5035147;28;20021;-82
2023/07/08 03:33:20;;;;;;;7.00;3.83;;;;;;;17.18;69.29;101477.72;5041478;22;20080;-81
2023/07/08 03:35:46;;;;;;;4.55;3.30;;;;;;;17.17;68.19;101470.75;5034254;28;20083;-82
2023/07/08 03:38:12;;;;;;;6.70;4.05;;;;;;;17.17;68.95;101474.22;5034428;28;20045;-82
2023/07/08 03:40:37;;;;;;;6.27;3.83;;;;;;;17.15;69.24;101476.06;5034692;28;20604;-81
2023/07/08 03:43:02;;;;;;;6.17;3.70;;;;;;;17.11;69.64;101480.53;5034005;28;20026;-82
2023/07/08 03:45:28;;;;;;;5.37;3.60;;;;;;;17.12;68.42;101481.41;5034838;28;20354;-82
2023/07/08 03:47:53;;;;;;;11.07;4.40;;;;;;;17.10;69.83;101483.22;5034258;28;20028;-82
2023/07/08 03:50:24;;;;;;;6.87;4.03;;;;;;;17.08;69.32;101483.28;5034768;28;20010;-82
2023/07/08 03:52:51;;;;;;;4.97;3.45;;;;;;;17.07;68.27;101478.06;5034798;28;20072;-82
2023/07/08 03:55:17;;;;;;;4.88;3.30;;;;;;;17.10;69.75;101491.97;5033669;28;20116;-82
2023/07/08 03:57:43;;;;;;;3.90;3.00;;;;;;;17.11;68.55;101491.03;5035159;28;20049;-82
2023/07/08 04:00:09;;;;;;;4.37;3.07;;;;;;;17.12;68.54;101486.66;5034151;28;20017;-82
2023/07/08 04:02:38;;;;;;;4.18;2.72;;;;;;;17.12;69.26;101495.34;5033615;28;20021;-82
2023/07/08 04:05:05;;;;;;;5.95;3.50;;;;;;;17.11;69.97;101495.41;5029754;28;20029;-82
2023/07/08 04:07:31;;;;;;;6.88;4.13;;;;;;;17.06;70.31;101495.56;5033081;28;20119;-81
2023/07/08 04:09:56;;;;;;;5.22;3.20;;;;;;;17.10;68.76;101497.19;5032567;28;20018;-82
2023/07/08 04:12:21;;;;;;;4.00;2.90;;;;;;;17.08;68.47;101487.66;5032107;28;20086;-82
2023/07/08 04:14:47;;;;;;;3.40;2.57;;;;;;;17.11;68.08;101487.56;5034239;28;20382;-83
2023/07/08 04:17:12;;;;;;;3.63;2.80;;;;;;;17.05;70.22;101480.75;5032759;28;20152;-82
2023/07/08 04:19:39;;;;;;;3.17;2.70;;;;;;;17.16;69.76;101492.66;5033796;28;20465;-82
2023/07/08 04:22:08;;;;;;;4.72;3.00;;;;;;;17.17;70.28;101497.00;5033750;28;20288;-82
2023/07/08 04:24:36;;;;;;;4.47;3.10;;;;;;;17.16;69.34;101490.03;5033215;28;20033;-82
2023/07/08 04:27:02;;;;;;;4.53;3.10;;;;;;;17.17;68.68;101494.38;5033825;28;20037;-83
2023/07/08 04:29:28;;;;;;;3.95;2.90;;;;;;;17.23;70.22;101507.25;5033362;28;20088;-82
2023/07/08 04:31:55;;;;;;;5.83;3.50;;;;;;;17.22;69.30;101502.97;5033081;28;20030;-82
2023/07/08 04:34:35;;;;;;;;;;;;;;;17.24;70.02;101503.72;5033332;28;20068;-82
2023/07/08 04:37:01;;;;;;;3.97;2.90;;;;;;;17.27;68.57;101493.16;5032369;28;19989;-82
2023/07/08 04:39:26;;;;;;;4.85;3.10;;;;;;;17.32;69.91;101493.00;5032708;28;20033;-82
2023/07/08 04:41:54;;;;;;;7.50;4.10;;;;;;;17.29;70.01;101483.47;5033362;28;20394;-82
2023/07/08 04:44:19;;;;;;;6.45;3.90;;;;;;;17.32;69.62;101488.63;5031954;28;20037;-82
2023/07/08 04:46:50;;;;;;;5.07;3.40;;;;;;;17.34;69.93;101488.56;5033296;28;20033;-82
2023/07/08 04:49:19;;;;;;;3.30;2.70;;;;;;;17.38;69.30;101488.41;5032919;28;20478;-82
2023/07/08 04:51:45;;;;;;;3.85;3.00;;;;;;;17.42;69.16;101492.66;5032605;28;20028;-82
2023/07/08 04:54:10;;;;;;;6.23;3.60;;;;;;;17.45;70.25;101496.94;5033049;28;20025;-82
2023/07/08 04:56:45;;;;;;;7.37;4.67;;;;;;;17.43;69.88;101497.00;5033483;28;20029;-82
2023/07/08 04:59:13;;;;;;;5.63;3.97;;;;;;;17.47;69.46;101500.38;5033038;28;20018;-82
2023/07/08 05:01:39;;;;;;;4.20;3.33;;;;;;;17.53;69.95;101491.44;5033967;28;20022;-82
2023/07/08 05:04:06;;;;;;;6.72;4.13;;;;;;;17.58;70.27;101492.09;5033159;28;20032;-82
2023/07/08 05:06:32;;;;;;;6.90;4.25;;;;;;;17.55;70.91;101482.59;5032968;28;20037;-82
2023/07/08 05:08:59;;;;;;;8.10;4.68;;;;;;;17.60;69.58;101487.66;5033209;28;20079;-82
2023/07/08 05:11:24;;;;;;;;;;;;;;;17.67;70.34;101494.44;5033257;28;20096;-82
2023/07/08 05:13:49;;;;;;;7.17;4.47;;;;;;;17.71;70.09;101492.56;5032603;28;19971;-82
2023/07/08 05:16:21;;;;;;;4.33;3.37;;;;;;;17.77;68.93;101491.50;5033476;28;20025;-82
2023/07/08 05:18:49;;;;;;;3.03;2.72;;;;;;;17.90;68.18;101495.41;5033715;28;20083;-82
2023/07/08 05:21:15;;;;;;;3.42;2.90;;;;;;;18.02;69.69;101492.34;5032130;28;20389;-82
2023/07/08 05:23:41;;;;;;;4.38;2.80;;;;;;;18.10;68.64;101484.19;5032845;28;20032;-82
2023/07/08 05:26:07;;;;;;;3.87;2.93;;;;;;;18.19;69.10;101485.63;5032762;28;20033;-82
2023/07/08 05:28:33;;;;;;;4.80;3.15;;;;;;;18.23;69.30;101481.97;5032760;28;20025;-82
2023/07/08 05:30:58;;;;;;;4.25;2.90;;;;;;;18.20;67.70;101479.47;5033070;28;20036;-82
2023/07/08 05:33:25;;;;;;;4.67;3.00;;;;;;;18.35;67.61;101485.91;5031137;28;20038;-82
2023/07/08 05:36:03;;;;;;;3.40;2.70;;;;;;;18.40;68.36;101485.72;5032993;28;20017;-82
2023/07/08 05:38:46;;;;;;;3.80;2.80;;;;;;;18.39;67.45;101474.38;5032878;28;20029;-82
2023/07/08 05:41:12;;;;;;;3.50;2.75;;;;;;;18.43;67.12;101465.44;5031885;28;20052;-82
2023/07/08 05:43:37;;;;;;;7.03;3.85;;;;;;;18.56;68.20;101481.59;5033030;28;20080;-82
2023/07/08 05:46:03;;;;;;;5.90;3.20;;;;;;;18.60;67.95;101472.66;5033417;28;20033;-81
2023/07/08 05:48:28;;;;;;;10.53;5.53;;;;;;;18.64;67.86;101468.13;5022450;28;20058;-82
2023/07/08 05:50:55;;;;;;;6.40;3.83;;;;;;;18.76;67.68;101477.34;5013428;28;20493;-84
2023/07/08 05:53:20;;;;;;;6.07;4.00;;;;;;;18.86;67.56;101481.31;5012864;28;20037;-85
2023/07/08 05:55:47;;;;;;;8.27;4.80;;;;;;;18.87;67.14;101469.00;5012613;28;20030;-82
2023/07/08 05:58:15;;;;;;;5.30;3.63;;;;;;;19.02;66.75;101480.72;5012097;28;20033;-82
2023/07/08 06:00:42;;;;;;;5.22;3.20;;;;;;;19.05;67.20;101481.44;5013320;28;20101;-82
2023/07/08 06:03:07;;;;;;;6.57;4.07;;;;;;;19.13;66.18;101482.00;5015631;28;20080;-81
2023/07/08 06:05:33;;;;;;;7.13;3.40;;;;;;;19.20;66.23;101487.84;5016498;28;20030;-82
2023/07/08 06:07:59;;;;;;;4.55;3.20;;;;;;;19.22;66.86;101486.03;5016472;28;20026;-81
2023/07/08 06:10:24;;;;;;;6.87;3.90;;;;;;;19.47;66.29;101492.91;5016683;28;20029;-82
2023/07/08 06:12:50;;;;;;;5.67;3.30;;;;;;;20.03;65.96;101475.53;5016273;28;20033;-82
2023/07/08 06:18:03;;;;;;;4.60;3.30;;;;;;;22.95;60.12;101485.47;5081415;23;20056;-82
2023/07/08 06:20:28;;;;;;;4.50;3.35;;;;;;;24.17;55.44;101492.41;5075818;28;20029;-82
2023/07/08 06:22:54;;;;;;;7.27;3.90;;;;;;;24.45;54.17;101488.00;5075012;28;20031;-82
2023/07/08 06:25:19;;;;;;;4.38;2.97;;;;;;;24.33;54.43;101494.94;5075033;28;20033;-82
2023/07/08 06:27:45;;;;;;;3.13;2.57;;;;;;;24.34;54.60;101488.69;5076365;28;20070;-88
2023/07/08 06:30:10;;;;;;;4.87;3.07;;;;;;;24.40;53.53;101492.75;5246920;22;20049;-89
2023/07/08 06:32:36;;;;;;;4.30;2.93;;;;;;;24.27;54.02;101501.47;5075664;28;20033;-85
2023/07/08 06:35:02;;;;;;;4.77;2.80;;;;;;;24.31;54.24;101502.16;5163759;22;20365;-83
2023/07/08 06:37:27;;;;;;;4.55;2.80;;;;;;;24.43;54.00;101496.06;5073002;28;20033;-82
2023/07/08 06:39:52;;;;;;;3.13;2.40;;;;;;;24.66;53.49;101491.06;5075511;28;20032;-81
2023/07/08 06:42:17;;;;;;;4.50;3.10;;;;;;;24.89;49.56;101497.56;5075365;28;20021;-82
2023/07/08 06:44:50;;;;;;;5.37;3.10;;;;;;;24.83;51.87;101498.81;5074998;28;20115;-82
2023/07/08 06:47:19;;;;;;;4.75;2.90;;;;;;;24.99;52.05;101495.19;5076210;28;20020;-82
2023/07/08 06:52:13;;;;;;;3.78;2.90;;;;;;;25.23;48.93;101483.84;5052627;28;20041;-82
2023/07/08 06:54:38;;;;;;;4.90;2.80;;;;;;;25.36;51.67;101499.81;5055513;28;20037;-83
2023/07/08 06:57:04;;;;;;;3.27;2.77;;;;;;;25.48;51.20;101498.16;5055835;28;20024;-84
2023/07/08 06:59:33;;;;;;;3.33;2.55;;;;;;;25.54;51.49;101497.75;5054283;28;20028;-82
2023/07/08 07:01:59;;;;;;;5.47;3.25;;;;;;;25.48;51.50;101492.84;5044986;28;20030;-82
2023/07/08 07:04:24;;;;;;;3.95;2.95;;;;;;;25.63;51.34;101498.91;5044742;28;20025;-82
2023/07/08 07:07:05;;;;;;;5.00;3.30;;;;;;;25.58;51.01;101481.47;5054810;28;20048;-83
2023/07/08 07:09:30;;;;;;;5.68;3.28;;;;;;;25.67;50.26;101493.25;5054435;28;20021;-83
2023/07/08 07:14:44;;;;;;;6.38;3.33;;;;;;;25.67;50.37;101481.78;5050962;28;20036;-83
2023/07/08 07:17:10;;;;;;;5.07;3.13;;;;;;;25.78;50.02;101481.06;5054778;28;20041;-83
2023/07/08 07:19:35;;;;;;;5.87;3.20;;;;;;;25.85;49.90;101487.63;5045725;28;20466;-83
2023/07/08 07:22:00;;;;;;;6.07;3.60;;;;;;;25.74;46.36;101480.41;5034677;28;20028;-81
2023/07/08 07:24:26;;;;;;;7.40;3.70;;;;;;;25.75;49.75;101482.97;5034749;28;20393;-81
2023/07/08 07:26:51;;;;;;;4.40;3.20;;;;;;;25.86;50.09;101484.03;5034003;28;20033;-81
2023/07/08 07:29:17;;;;;;;3.30;2.70;;;;;;;26.06;49.62;101494.09;5034794;28;20083;-81
2023/07/08 07:31:43;;;;;;;5.22;3.50;;;;;;;26.11;47.40;101492.97;5035687;28;20057;-80
2023/07/08 07:34:09;;;;;;;4.82;3.28;;;;;;;26.12;49.12;101492.84;5034047;28;20426;-78
2023/07/08 07:36:36;;;;;;;8.88;4.88;;;;;;;25.94;44.90;101494.13;5034663;28;20033;-79
2023/07/08 07:39:01;;;;;;;6.82;4.10;;;;;;;25.87;48.10;101491.88;5035259;28;20493;-82
2023/07/08 07:41:30;;;;;;;5.00;3.20;;;;;;;25.98;49.34;101485.81;5039822;28;20029;-83
2023/07/08 07:43:55;;;;;;;5.15;3.53;;;;;;;26.18;48.66;101486.22;5054953;28;20055;-83
2023/07/08 07:46:21;;;;;;;4.70;3.10;;;;;;;26.34;48.90;101492.16;5053480;28;20025;-84
2023/07/08 07:48:46;;;;;;;5.00;3.17;;;;;;;26.48;48.22;101479.63;5052269;28;20119;-84
2023/07/08 07:51:12;;;;;;;4.13;2.90;;;;;;;26.68;46.59;101487.00;5053956;28;20116;-81
2023/07/08 07:53:38;;;;;;;3.67;2.50;;;;;;;26.77;48.08;101495.28;5054201;28;20024;-80
2023/07/08 07:56:04;;;;;;;3.65;2.50;;;;;;;26.85;48.07;101490.28;5053566;28;20380;-84
2023/07/08 07:58:30;;;;;;;3.22;2.50;;;;;;;26.93;48.05;101487.88;5054075;28;20025;-84
2023/07/08 08:00:56;;;;;;;6.53;3.10;;;;;;;27.04;45.21;101486.22;5053962;28;20025;-84
2023/07/08 08:03:21;;;;;;;6.35;3.60;;;;;;;27.00;44.82;101476.78;5053572;28;20108;-82
2023/07/08 08:05:47;;;;;;;5.45;3.40;;;;;;;26.96;47.36;101478.84;5052734;28;20032;-83
2023/07/08 08:08:13;;;;;;;5.05;3.33;;;;;;;26.98;46.21;101483.06;5052695;28;20031;-79
2023/07/08 08:10:38;;;;;;;6.18;3.42;;;;;;;27.05;46.02;101479.94;5052161;28;20071;-81
2023/07/08 08:13:03;;;;;;;4.32;2.92;;;;;;;27.08;47.44;101477.03;5054292;28;20037;-81
2023/07/08 08:15:29;;;;;;;4.13;3.08;;;;;;;27.24;47.83;101495.38;5042503;28;20056;-82
2023/07/08 08:17:54;;;;;;;7.65;4.30;;;;;;;27.29;45.10;101491.41;5034072;28;20022;-80
2023/07/08 08:20:21;;;;;;;6.30;4.00;;;;;;;27.22;45.69;101491.97;5033680;28;20374;-81
2023/07/08 08:22:47;;;;;;;6.32;3.70;;;;;;;27.29;48.06;101496.72;5033322;28;20034;-85
2023/07/08 08:25:14;;;;;;;5.15;3.25;;;;;;;27.49;47.60;101497.03;5032822;28;20044;-85
2023/07/08 08:27:40;;;;;;;3.83;2.90;;;;;;;27.68;46.95;101500.97;5033894;28;20033;-82
2023/07/08 08:30:06;;;;;;;;;;;;;;;27.80;46.86;101496.47;5033741;28;20022;-82
2023/07/08 08:32:37;;;;;;;3.33;2.60;;;;;;;27.93;46.94;101499.88;5034524;28;19917;-82
2023/07/08 08:35:02;;;;;;;3.22;2.60;;;;;;;28.04;47.09;101499.00;5034145;28;20025;-81
2023/07/08 08:37:28;;;;;;;;;;;;;;;28.17;46.00;101502.44;5033799;28;20032;-82
2023/07/08 08:39:53;;;;;;;5.23;3.40;;;;;;;28.24;45.88;101509.97;5033703;28;19936;-82
2023/07/08 08:42:42;;;;;;;3.87;2.83;;;;;;;28.32;46.30;101510.19;5033011;28;20279;-82
2023/07/08 08:45:13;;;;;;;3.60;2.55;;;;;;;28.45;47.23;101502.88;5032617;28;20303;-82
2023/07/08 08:47:42;;;;;;;2.78;2.40;;;;;;;28.63;46.68;101510.34;5033312;28;20534;-82
2023/07/08 08:50:31;;;;;;;5.07;3.30;;;;;;;28.70;44.66;101506.22;5033164;28;20033;-82
2023/07/08 08:53:03;;;;;;;6.43;3.58;;;;;;;28.69;43.74;101514.34;5033357;28;20100;-82
2023/07/08 08:55:30;;;;;;;4.78;3.25;;;;;;;28.70;44.88;101513.38;5032722;28;20031;-82
2023/07/08 08:58:19;;;;;;;4.95;3.22;;;;;;;28.76;45.14;101513.75;5032663;28;20028;-83
2023/07/08 09:00:47;;;;;;;4.72;3.00;;;;;;;28.87;45.03;101520.88;5033196;28;20036;-82
2023/07/08 09:03:20;;;;;;;5.35;3.47;;;;;;;28.96;44.34;101517.44;5032906;28;20029;-82
2023/07/08 09:05:46;;;;;;;5.85;3.60;;;;;;;28.99;42.07;101523.50;5032436;28;20029;-83
2023/07/08 09:08:23;;;;;;;5.80;3.72;;;;;;;29.02;43.69;101513.41;5032716;28;20033;-83
2023/07/08 09:11:01;;;;;;;4.38;3.15;;;;;;;29.15;43.49;101521.22;5033541;28;20037;-84
2023/07/08 09:13:37;;;;;;;4.30;2.95;;;;;;;29.25;42.79;101522.16;5031944;28;20036;-83
2023/07/08 09:16:14;;;;;;;5.80;3.30;;;;;;;29.37;43.71;101525.66;5033147;28;20428;-82
2023/07/08 09:18:55;;;;;;;4.68;3.15;;;;;;;29.45;44.24;101516.13;5032258;28;20034;-82
2023/07/08 09:21:27;;;;;;;4.90;3.17;;;;;;;29.55;43.21;101517.88;5032511;28;20490;-83
2023/07/08 09:24:00;;;;;;;4.30;3.05;;;;;;;29.61;42.32;101521.00;5032780;28;20492;-82
2023/07/08 09:26:29;;;;;;;4.43;3.10;;;;;;;29.68;43.12;101508.78;5032610;28;20289;-83
2023/07/08 09:28:57;;;;;;;4.00;2.97;;;;;;;29.80;42.97;101502.38;5033415;28;20032;-82
2023/07/08 09:31:24;;;;;;;3.75;2.75;;;;;;;29.96;43.74;101511.75;5032135;28;20025;-83
2023/07/08 09:34:06;;;;;;;10.80;5.03;;;;;;;29.86;40.59;101509.00;5046993;22;20048;-82
2023/07/08 09:36:31;;;;;;;7.47;4.25;;;;;;;29.95;41.67;101513.56;5092670;28;20032;-82
2023/07/08 09:39:00;;;;;;;5.50;3.63;;;;;;;30.15;41.70;101509.16;5092532;28;20028;-82
2023/07/08 09:41:43;;;;;;;4.88;3.40;;;;;;;30.35;42.01;101515.41;5084019;28;20066;-82
2023/07/08 09:44:26;;;;;;;5.55;3.25;;;;;;;30.50;39.90;101507.81;5091562;28;20106;-83
2023/07/08 09:47:00;;;;;;;7.90;4.00;;;;;;;30.60;39.27;101497.16;5087051;22;20151;-82
2023/07/08 09:49:34;;;;;;;5.72;3.83;;;;;;;30.72;35.51;101497.03;5069915;28;20036;-82
2023/07/08 09:52:00;;;;;;;8.23;4.57;;;;;;;30.64;38.77;101487.00;5072398;28;20052;-82
2023/07/08 09:54:26;;;;;;;6.38;3.95;;;;;;;30.79;38.33;101492.78;5071096;28;20120;-82
2023/07/08 09:57:26;;;;;;;6.03;3.80;;;;;;;30.96;39.57;101484.03;5072498;28;20082;-82
2023/07/08 09:59:57;;;;;;;8.57;4.70;;;;;;;31.07;38.46;101485.72;5072942;28;20020;-82
2023/07/08 10:02:49;;;;;;;11.00;5.05;;;;;;;31.06;34.69;101483.19;5071627;28;20078;-82
2023/07/08 10:05:19;;;;;;;9.48;5.15;;;;;;;31.07;37.93;101487.56;5072432;28;20027;-83
2023/07/08 10:07:46;;;;;;;8.25;4.82;;;;;;;31.09;38.29;101486.44;5069378;28;20101;-83
2023/07/08 10:10:17;;;;;;;9.32;5.13;;;;;;;31.20;36.72;101489.97;5070867;28;20052;-85
2023/07/08 10:12:57;;;;;;;9.00;5.18;;;;;;;31.23;39.35;101487.00;5072328;28;20056;-88
2023/07/08 10:15:52;;;;;;;8.70;5.00;;;;;;;31.30;37.78;101484.59;5066126;28;20024;-82
2023/07/08 10:18:25;;;;;;;6.47;4.07;;;;;;;31.44;37.94;101484.13;5043584;28;20033;-83
2023/07/08 10:21:11;;;;;;;5.40;3.92;;;;;;;31.68;36.83;101493.50;5051640;28;20029;-83
2023/07/08 10:23:54;;;;;;;10.68;5.82;;;;;;;31.52;35.27;101489.63;5051635;28;20028;-85
2023/07/08 10:26:26;;;;;;;11.02;5.78;;;;;;;31.41;34.27;101490.63;5051775;28;20188;-86
2023/07/08 10:29:34;;;;;;;9.45;5.25;;;;;;;31.47;34.13;101485.69;5050249;28;20470;-83
2023/07/08 10:32:14;;;;;;;9.15;5.18;;;;;;;31.52;35.48;101495.00;5052503;28;20527;-85
2023/07/08 10:34:46;;;;;;;7.72;4.57;;;;;;;31.63;35.47;101487.75;5052183;28;20033;-83
2023/07/08 10:37:50;;;;;;;8.57;4.50;;;;;;;31.80;36.15;101484.31;5051336;28;20385;-83
2023/07/08 10:40:25;;;;;;;11.75;5.63;;;;;;;31.96;33.50;101493.59;5068434;28;20048;-82
2023/07/08 10:43:17;;;;;;;10.13;5.40;;;;;;;32.03;33.98;101490.13;5070510;28;20035;-82
2023/07/08 10:46:17;;;;;;;11.63;5.95;;;;;;;31.70;33.62;101483.50;5059550;22;20144;-82
2023/07/08 10:48:57;;;;;;;9.77;5.30;;;;;;;31.82;35.47;101490.38;5054009;28;20033;-83
2023/07/08 10:51:50;;;;;;;9.80;5.03;;;;;;;32.02;35.07;101496.50;5054780;28;20040;-83
2023/07/08 10:54:49;;;;;;;10.05;5.30;;;;;;;32.18;32.72;101495.88;5053772;28;20075;-83
2023/07/08 10:57:42;;;;;;;12.02;5.90;;;;;;;31.88;31.91;101495.16;5054207;28;20107;-82
2023/07/08 11:00:32;;;;;;;10.30;5.40;;;;;;;31.90;33.10;101495.03;5055366;28;20025;-83
2023/07/08 11:03:16;;;;;;;11.68;6.15;;;;;;;31.87;31.80;101492.63;5055368;28;20021;-83
2023/07/08 11:05:45;;;;;;;10.85;5.88;;;;;;;31.86;30.77;101488.25;5054455;28;20568;-83
2023/07/08 11:08:59;;;;;;;9.80;5.35;;;;;;;32.00;32.04;101495.81;5055135;28;20037;-83
2023/07/08 11:11:30;;;;;;;9.90;5.50;;;;;;;32.25;29.07;101498.81;5050493;28;20116;-82
2023/07/08 11:14:05;;;;;;;8.82;5.10;;;;;;;32.44;32.70;101487.09;5054812;28;20029;-87
2023/07/08 11:16:35;;;;;;;9.20;5.30;;;;;;;32.65;30.20;101489.47;5054964;28;20538;-82
2023/07/08 11:19:18;;;;;;;7.68;4.63;;;;;;;32.94;32.94;101485.72;5054212;28;20516;-83
2023/07/08 11:21:45;;;;;;;8.70;4.93;;;;;;;33.22;30.15;101490.13;5053141;28;20084;-83
2023/07/08 11:24:22;;;;;;;7.75;4.53;;;;;;;33.39;28.23;101485.72;5054143;28;20422;-83
2023/07/08 11:26:56;;;;;;;7.47;4.20;;;;;;;33.57;27.64;101489.22;5054015;28;20025;-83
2023/07/08 11:29:46;;;;;;;9.57;5.38;;;;;;;33.47;27.15;101498.38;5054107;28;20027;-83
2023/07/08 11:32:16;;;;;;;11.90;5.85;;;;;;;33.46;28.71;101491.31;5053451;28;20022;-82
2023/07/08 11:34:46;;;;;;;7.93;4.70;;;;;;;33.58;30.15;101490.03;5054678;28;20032;-84
2023/07/08 11:37:13;;;;;;;6.70;4.40;;;;;;;33.73;30.24;101487.59;5054313;28;20103;-84
2023/07/08 11:39:44;;;;;;;6.53;4.07;;;;;;;33.93;28.87;101490.06;5054059;28;20087;-84
2023/07/08 11:42:33;;;;;;;6.30;4.28;;;;;;;34.07;30.36;101486.75;5051880;28;20465;-83
2023/07/08 11:44:59;;;;;;;8.02;4.10;;;;;;;34.12;27.36;101484.41;5053214;28;20028;-83
2023/07/08 11:47:48;;;;;;;11.43;5.90;;;;;;;33.59;26.79;101483.66;5053596;28;20059;-82